This is the latest recevied weather packets stored in our database for station/object VA2DG-13. If no packets are shown the sender has not sent any weather packets the latest 10 day(s).
| Time | Temp. | Humidity | Pressure | Rain* | Wind** | Luminosity | Snow |
|---|---|---|---|---|---|---|---|
| 1777542309 | 10.56° C | 87% | 1001.5 hPa | 1.52 mm | - | - | - |
| 1777539909 | 10.56° C | 87% | 1001.5 hPa | 1.52 mm | - | - | - |
| 1777538408 | 10.56° C | 86% | 1001.9 hPa | 1.02 mm | - | - | - |
| 1777538109 | 10.56° C | 86% | 1002 hPa | 1.27 mm | - | - | - |
| 1777537809 | 10.56° C | 86% | 1001.8 hPa | 1.02 mm | - | - | - |
| 1777537209 | 10.56° C | 85% | 1001.9 hPa | 1.52 mm | - | - | - |
| 1777536309 | 11.11° C | 85% | 1002.1 hPa | 1.52 mm | - | - | - |
| 1777535409 | 11.11° C | 85% | 1002.2 hPa | 1.27 mm | - | - | - |
| 1777534509 | 11.11° C | 85% | 1002.4 hPa | 1.52 mm | - | - | - |
| 1777528508 | 12.22° C | 83% | 1003 hPa | 1.78 mm | - | - | - |
| 1777527309 | 12.22° C | 82% | 1003.2 hPa | 1.52 mm | - | - | - |
| 1777526408 | 12.22° C | 81% | 1003.5 hPa | 1.27 mm | - | - | - |
| 1777525509 | 12.78° C | 81% | 1003.6 hPa | 0.76 mm | - | - | - |
| 1777524309 | 13.33° C | 82% | 1003.7 hPa | 0.25 mm | - | - | - |
| 1777521309 | 12.78° C | 78% | 1004 hPa | 0 mm | - | - | - |
| 1777521009 | 12.78° C | 78% | 1003.9 hPa | 0 mm | - | - | - |
| 1777520709 | 12.78° C | 77% | 1003.9 hPa | 0 mm | - | - | - |
| 1777520409 | 12.78° C | 77% | 1003.9 hPa | 0 mm | - | - | - |
| 1777517109 | 14.44° C | 68% | 1004 hPa | 0 mm | - | - | - |
| 1777516209 | 14.44° C | 68% | 1004.3 hPa | 0 mm | - | - | - |
| 1777514109 | 15° C | 65% | 1004.9 hPa | 0 mm | - | - | - |
| 1777512308 | 16.11° C | 59% | 1004.5 hPa | 0 mm | - | - | - |
| 1777510209 | 16.11° C | 58% | 1004.4 hPa | 0 mm | - | - | - |
| 1777508108 | 16.67° C | 57% | 1004.3 hPa | 0 mm | - | - | - |
| 1777507208 | 16.67° C | 57% | 1004.3 hPa | 0 mm | - | - | - |
* Rain latest hour (hover to see other rain measurements)
** Current wind speed in m/s (hover to see current wind gust speed)